Main page
Satellite images 10-day forecastsClimateMarine weather Cyclones Lightning AirportsFAQ Newsletter About
Weather : Europe Africa North America South America Asia Australia-Oceania Others
Languages Contact

Eleusina, Greece

latitude: 38-04N, longitude: 023-33E, elevation: 44 m


METAR: LGEL 221350Z 00000KT 9999 FEW030 SCT070 28/09 Q1013
TAF: LGEL 221100Z 2212/2312 16010KT 9999 FEW030 TEMPO 2212/2215 FEW030 BKN070

Time: 17:29 (14:29 UTC)

Current weather observation

The report was made 39 minutes ago, at 13:50 UTC
Calm wind
Temperature 28°C
Humidity 30%
Pressure 1013 hPa
Visibility 10 km or more
Few clouds at a height of 3000 ft
Scattered clouds at a height of 7000 ft

Change units

Forecast

The report was made 3 hours and 29 minutes ago, at 11:00 UTC
Forecast valid from 22 at 12 UTC to 23 at 12 UTC
Wind 10 kt from the South/Southeast
Visibility 10 km or more
Few clouds at a height of 3000 ft
Temporary
from 22 at 12 UTC to 22 at 15 UTC
Few clouds at a height of 3000 ft
Broken clouds at a height of 7000 ft
The information on this site is subject to a disclaimer
Weather : Europe Africa North America South America Asia Australia-Oceania Others
Satellite images 10-day forecastsClimateMarine weather Cyclones Lightning AirportsFAQ Languages Contact Newsletter About